sensor_id;sensor_type;location;lat;lon;timestamp;pressure;altitude;pressure_sealevel;temperature;humidity
48614;BME280;34408;51.426;5.444;2023-02-23T00:00:24;101207.75;;;10.60;70.30
48614;BME280;34408;51.426;5.444;2023-02-23T00:02:55;101203.19;;;10.60;70.28
48614;BME280;34408;51.426;5.444;2023-02-23T00:05:24;101201.53;;;10.59;70.37
48614;BME280;34408;51.426;5.444;2023-02-23T00:07:54;101206.09;;;10.59;70.37
48614;BME280;34408;51.426;5.444;2023-02-23T00:10:22;101209.59;;;10.59;70.44
48614;BME280;34408;51.426;5.444;2023-02-23T00:12:56;101197.41;;;10.57;70.50
48614;BME280;34408;51.426;5.444;2023-02-23T00:15:24;101204.44;;;10.58;70.32
48614;BME280;34408;51.426;5.444;2023-02-23T00:17:53;101204.44;;;10.58;70.57
48614;BME280;34408;51.426;5.444;2023-02-23T00:20:22;101203.63;;;10.57;70.53
48614;BME280;34408;51.426;5.444;2023-02-23T00:22:55;101202.78;;;10.57;70.74
48614;BME280;34408;51.426;5.444;2023-02-23T00:25:24;101193.91;;;10.56;70.54
48614;BME280;34408;51.426;5.444;2023-02-23T00:27:52;101190.41;;;10.56;70.58
48614;BME280;34408;51.426;5.444;2023-02-23T00:30:20;101200.31;;;10.55;70.72
48614;BME280;34408;51.426;5.444;2023-02-23T00:32:49;101200.31;;;10.55;70.77
48614;BME280;34408;51.426;5.444;2023-02-23T00:35:17;101194.13;;;10.55;70.73
48614;BME280;34408;51.426;5.444;2023-02-23T00:37:46;101191.44;;;10.55;70.80
48614;BME280;34408;51.426;5.444;2023-02-23T00:40:17;101193.28;;;10.54;70.76
48614;BME280;34408;51.426;5.444;2023-02-23T00:42:48;101195.16;;;10.54;70.77
48614;BME280;34408;51.426;5.444;2023-02-23T00:45:17;101190.59;;;10.54;70.85
48614;BME280;34408;51.426;5.444;2023-02-23T00:47:45;101188.13;;;10.53;70.86
48614;BME280;34408;51.426;5.444;2023-02-23T00:50:15;101194.34;;;10.53;70.84
48614;BME280;34408;51.426;5.444;2023-02-23T00:52:43;101188.13;;;10.53;70.90
48614;BME280;34408;51.426;5.444;2023-02-23T00:55:12;101191.66;;;10.53;70.90
48614;BME280;34408;51.426;5.444;2023-02-23T00:57:42;101191.66;;;10.53;70.90
48614;BME280;34408;51.426;5.444;2023-02-23T01:00:10;101194.34;;;10.53;70.97
48614;BME280;34408;51.426;5.444;2023-02-23T01:02:46;101188.13;;;10.53;70.86
48614;BME280;34408;51.426;5.444;2023-02-23T01:05:15;101188.56;;;10.50;70.96
48614;BME280;34408;51.426;5.444;2023-02-23T01:07:43;101190.81;;;10.53;71.00
48614;BME280;34408;51.426;5.444;2023-02-23T01:10:12;101190.81;;;10.53;70.95
48614;BME280;34408;51.426;5.444;2023-02-23T01:12:48;101189.16;;;10.52;71.03
48614;BME280;34408;51.426;5.444;2023-02-23T01:15:18;101188.34;;;10.51;71.28
48614;BME280;34408;51.426;5.444;2023-02-23T01:17:46;101192.50;;;10.47;71.06
48614;BME280;34408;51.426;5.444;2023-02-23T01:20:15;101197.44;;;10.50;71.09
48614;BME280;34408;51.426;5.444;2023-02-23T01:22:46;101192.91;;;10.51;71.22
48614;BME280;34408;51.426;5.444;2023-02-23T01:25:14;101200.34;;;10.49;71.34
48614;BME280;34408;51.426;5.444;2023-02-23T01:27:42;101203.03;;;10.49;71.36
48614;BME280;34408;51.426;5.444;2023-02-23T01:30:14;101204.06;;;10.48;71.16
48614;BME280;34408;51.426;5.444;2023-02-23T01:32:41;101204.06;;;10.48;71.28
48614;BME280;34408;51.426;5.444;2023-02-23T01:35:10;101197.03;;;10.47;71.24
48614;BME280;34408;51.426;5.444;2023-02-23T01:37:41;101199.72;;;10.47;71.16
48614;BME280;34408;51.426;5.444;2023-02-23T01:40:13;101204.28;;;10.46;71.15
48614;BME280;34408;51.426;5.444;2023-02-23T01:42:44;101196.22;;;10.46;71.11
48614;BME280;34408;51.426;5.444;2023-02-23T01:45:22;101195.41;;;10.46;71.26
48614;BME280;34408;51.426;5.444;2023-02-23T01:47:53;101200.78;;;10.46;71.14
48614;BME280;34408;51.426;5.444;2023-02-23T01:50:23;101200.78;;;10.46;71.25
48614;BME280;34408;51.426;5.444;2023-02-23T01:52:54;101199.94;;;10.45;71.18
48614;BME280;34408;51.426;5.444;2023-02-23T01:55:22;101207.19;;;10.44;71.27
48614;BME280;34408;51.426;5.444;2023-02-23T01:58:01;101199.94;;;10.45;71.31
48614;BME280;34408;51.426;5.444;2023-02-23T02:00:32;101200.16;;;10.43;71.35
48614;BME280;34408;51.426;5.444;2023-02-23T02:03:06;101206.56;;;10.42;71.52
48614;BME280;34408;51.426;5.444;2023-02-23T02:05:37;101207.41;;;10.43;71.49
48614;BME280;34408;51.426;5.444;2023-02-23T02:08:07;101205.75;;;10.42;71.48
48614;BME280;34408;51.426;5.444;2023-02-23T02:10:36;101209.47;;;10.41;71.56
48614;BME280;34408;51.426;5.444;2023-02-23T02:13:14;101207.84;;;10.40;71.81
48614;BME280;34408;51.426;5.444;2023-02-23T02:16:05;101210.53;;;10.40;71.79
48614;BME280;34408;51.426;5.444;2023-02-23T02:18:43;101205.38;;;10.38;71.60
48614;BME280;34408;51.426;5.444;2023-02-23T02:21:38;101206.41;;;10.37;71.80
48614;BME280;34408;51.426;5.444;2023-02-23T02:24:57;101205.81;;;10.35;71.88
48614;BME280;34408;51.426;5.444;2023-02-23T02:28:01;101210.34;;;10.35;72.07
48614;BME280;34408;51.426;5.444;2023-02-23T02:30:47;101206.00;;;10.34;71.88
48614;BME280;34408;51.426;5.444;2023-02-23T02:33:50;101206.00;;;10.34;71.76
48614;BME280;34408;51.426;5.444;2023-02-23T02:36:53;101211.59;;;10.32;71.90
48614;BME280;34408;51.426;5.444;2023-02-23T02:39:37;101204.56;;;10.31;71.92
48614;BME280;34408;51.426;5.444;2023-02-23T02:42:17;101208.09;;;10.32;71.72
48614;BME280;34408;51.426;5.444;2023-02-23T02:44:51;101203.75;;;10.31;71.82
48614;BME280;34408;51.426;5.444;2023-02-23T02:47:27;101210.16;;;10.30;71.69
48614;BME280;34408;51.426;5.444;2023-02-23T02:50:02;101206.63;;;10.29;71.49
48614;BME280;34408;51.426;5.444;2023-02-23T02:52:36;101212.22;;;10.28;71.51
48614;BME280;34408;51.426;5.444;2023-02-23T02:55:08;101204.59;;;10.25;71.39
48614;BME280;34408;51.426;5.444;2023-02-23T02:57:40;101204.59;;;10.25;71.53
48614;BME280;34408;51.426;5.444;2023-02-23T03:00:14;101208.31;;;10.24;71.34
48614;BME280;34408;51.426;5.444;2023-02-23T03:03:01;101210.16;;;10.23;71.07
48614;BME280;34408;51.426;5.444;2023-02-23T03:05:48;101211.22;;;10.22;70.94
48614;BME280;34408;51.426;5.444;2023-02-23T03:08:40;101212.25;;;10.21;71.10
48614;BME280;34408;51.426;5.444;2023-02-23T03:11:37;101212.25;;;10.21;71.42
48614;BME280;34408;51.426;5.444;2023-02-23T03:14:28;101210.59;;;10.20;70.88
48614;BME280;34408;51.426;5.444;2023-02-23T03:17:22;101212.63;;;10.18;70.97
48614;BME280;34408;51.426;5.444;2023-02-23T03:20:18;101223.19;;;10.20;71.03
48614;BME280;34408;51.426;5.444;2023-02-23T03:23:13;101221.50;;;10.19;71.05
48614;BME280;34408;51.426;5.444;2023-02-23T03:26:05;101219.88;;;10.18;71.03
48614;BME280;34408;51.426;5.444;2023-02-23T03:29:00;101222.75;;;10.16;71.18
48614;BME280;34408;51.426;5.444;2023-02-23T03:31:49;101223.78;;;10.15;70.80
48614;BME280;34408;51.426;5.444;2023-02-23T03:34:41;101231.84;;;10.15;71.15
48614;BME280;34408;51.426;5.444;2023-02-23T03:37:33;101227.50;;;10.14;71.20
48614;BME280;34408;51.426;5.444;2023-02-23T03:40:24;101221.53;;;10.12;71.13
48614;BME280;34408;51.426;5.444;2023-02-23T03:43:16;101225.03;;;10.13;70.94
48614;BME280;34408;51.426;5.444;2023-02-23T03:46:04;101217.41;;;10.09;71.04
48614;BME280;34408;51.426;5.444;2023-02-23T03:48:54;101218.44;;;10.08;71.08
48614;BME280;34408;51.426;5.444;2023-02-23T03:51:45;101234.53;;;10.08;71.31
48614;BME280;34408;51.426;5.444;2023-02-23T03:54:34;101241.78;;;10.08;71.30
48614;BME280;34408;51.426;5.444;2023-02-23T03:57:23;101232.06;;;10.07;71.28
48614;BME280;34408;51.426;5.444;2023-02-23T04:00:16;101228.34;;;10.01;71.24
48614;BME280;34408;51.426;5.444;2023-02-23T04:03:04;101232.28;;;10.05;71.31
48614;BME280;34408;51.426;5.444;2023-02-23T04:05:53;101243.84;;;10.06;71.27
48614;BME280;34408;51.426;5.444;2023-02-23T04:08:39;101240.34;;;10.05;71.45
48614;BME280;34408;51.426;5.444;2023-02-23T04:11:30;101245.50;;;10.07;71.48
48614;BME280;34408;51.426;5.444;2023-02-23T04:14:22;101232.06;;;10.07;71.17
48614;BME280;34408;51.426;5.444;2023-02-23T04:16:53;101236.63;;;10.06;71.03
48614;BME280;34408;51.426;5.444;2023-02-23T04:19:20;101243.03;;;10.05;71.25
48614;BME280;34408;51.426;5.444;2023-02-23T04:21:48;101245.50;;;10.07;71.36
48614;BME280;34408;51.426;5.444;2023-02-23T04:24:16;101241.56;;;10.03;71.32
48614;BME280;34408;51.426;5.444;2023-02-23T04:26:43;101245.72;;;10.05;71.04
48614;BME280;34408;51.426;5.444;2023-02-23T04:29:11;101245.72;;;10.05;71.10
48614;BME280;34408;51.426;5.444;2023-02-23T04:31:39;101253.75;;;10.05;71.19
48614;BME280;34408;51.426;5.444;2023-02-23T04:34:09;101252.94;;;10.05;71.15
48614;BME280;34408;51.426;5.444;2023-02-23T04:36:37;101251.28;;;10.04;71.44
48614;BME280;34408;51.426;5.444;2023-02-23T04:39:06;101254.78;;;10.04;71.07
48614;BME280;34408;51.426;5.444;2023-02-23T04:41:33;101259.34;;;10.04;71.50
48614;BME280;34408;51.426;5.444;2023-02-23T04:44:01;101256.66;;;10.04;71.22
48614;BME280;34408;51.426;5.444;2023-02-23T04:46:29;101259.34;;;10.04;71.24
48614;BME280;34408;51.426;5.444;2023-02-23T04:48:57;101260.16;;;10.04;71.32
48614;BME280;34408;51.426;5.444;2023-02-23T04:51:27;101255.00;;;10.03;71.19
48614;BME280;34408;51.426;5.444;2023-02-23T04:53:57;101255.84;;;10.03;71.29
48614;BME280;34408;51.426;5.444;2023-02-23T04:56:25;101264.09;;;10.02;71.42
48614;BME280;34408;51.426;5.444;2023-02-23T04:58:53;101258.72;;;10.02;71.27
48614;BME280;34408;51.426;5.444;2023-02-23T05:01:21;101264.09;;;10.02;71.35
48614;BME280;34408;51.426;5.444;2023-02-23T05:03:49;101264.31;;;10.00;71.57
48614;BME280;34408;51.426;5.444;2023-02-23T05:06:17;101262.66;;;9.99;71.49
48614;BME280;34408;51.426;5.444;2023-02-23T05:08:47;101268.84;;;10.00;71.57
48614;BME280;34408;51.426;5.444;2023-02-23T05:11:15;101264.72;;;9.97;71.33
48614;BME280;34408;51.426;5.444;2023-02-23T05:13:43;101268.22;;;9.98;71.04
48614;BME280;34408;51.426;5.444;2023-02-23T05:16:11;101272.78;;;9.97;71.18
48614;BME280;34408;51.426;5.444;2023-02-23T05:18:39;101277.31;;;9.97;71.10
48614;BME280;34408;51.426;5.444;2023-02-23T05:21:07;101272.97;;;9.96;71.51
48614;BME280;34408;51.426;5.444;2023-02-23T05:23:35;101275.88;;;9.94;71.45
48614;BME280;34408;51.426;5.444;2023-02-23T05:26:07;101271.31;;;9.95;71.06
48614;BME280;34408;51.426;5.444;2023-02-23T05:28:36;101275.88;;;9.94;71.40
48614;BME280;34408;51.426;5.444;2023-02-23T05:31:04;101277.72;;;9.94;71.03
48614;BME280;34408;51.426;5.444;2023-02-23T05:33:33;101277.94;;;9.92;71.27
48614;BME280;34408;51.426;5.444;2023-02-23T05:36:09;101282.47;;;9.92;71.30
48614;BME280;34408;51.426;5.444;2023-02-23T05:38:37;101282.47;;;9.92;71.45
48614;BME280;34408;51.426;5.444;2023-02-23T05:41:07;101284.34;;;9.91;71.31
48614;BME280;34408;51.426;5.444;2023-02-23T05:43:35;101287.22;;;9.90;71.34
48614;BME280;34408;51.426;5.444;2023-02-23T05:46:05;101288.88;;;9.91;71.49
48614;BME280;34408;51.426;5.444;2023-02-23T05:48:33;101281.88;;;9.90;71.10
48614;BME280;34408;51.426;5.444;2023-02-23T05:51:01;101289.91;;;9.90;71.00
48614;BME280;34408;51.426;5.444;2023-02-23T05:53:29;101289.09;;;9.89;70.99
48614;BME280;34408;51.426;5.444;2023-02-23T05:55:57;101289.09;;;9.89;71.32
48614;BME280;34408;51.426;5.444;2023-02-23T05:58:26;101289.09;;;9.89;71.32
48614;BME280;34408;51.426;5.444;2023-02-23T06:00:54;101292.59;;;9.90;71.31
48614;BME280;34408;51.426;5.444;2023-02-23T06:03:22;101285.56;;;9.89;71.38
48614;BME280;34408;51.426;5.444;2023-02-23T06:05:50;101292.81;;;9.88;71.24
48614;BME280;34408;51.426;5.444;2023-02-23T06:08:18;101295.69;;;9.87;71.39
48614;BME280;34408;51.426;5.444;2023-02-23T06:10:46;101302.72;;;9.88;71.13
48614;BME280;34408;51.426;5.444;2023-02-23T06:13:14;101294.03;;;9.86;71.24
48614;BME280;34408;51.426;5.444;2023-02-23T06:15:43;101294.88;;;9.86;71.22
48614;BME280;34408;51.426;5.444;2023-02-23T06:18:11;101296.53;;;9.87;71.35
48614;BME280;34408;51.426;5.444;2023-02-23T06:20:39;101293.84;;;9.87;70.97
48614;BME280;34408;51.426;5.444;2023-02-23T06:23:06;101301.88;;;9.87;71.13
48614;BME280;34408;51.426;5.444;2023-02-23T06:25:34;101300.84;;;9.88;71.30
48614;BME280;34408;51.426;5.444;2023-02-23T06:28:02;101309.75;;;9.89;71.08
48614;BME280;34408;51.426;5.444;2023-02-23T06:30:30;101312.44;;;9.89;71.33
48614;BME280;34408;51.426;5.444;2023-02-23T06:33:00;101314.06;;;9.90;71.16
48614;BME280;34408;51.426;5.444;2023-02-23T06:35:27;101313.47;;;9.88;71.25
48614;BME280;34408;51.426;5.444;2023-02-23T06:37:55;101317.16;;;9.87;71.41
48614;BME280;34408;51.426;5.444;2023-02-23T06:40:23;101322.53;;;9.87;71.37
48614;BME280;34408;51.426;5.444;2023-02-23T06:42:51;101322.75;;;9.85;71.43
48614;BME280;34408;51.426;5.444;2023-02-23T06:45:19;101327.91;;;9.87;71.39
48614;BME280;34408;51.426;5.444;2023-02-23T06:47:46;101340.50;;;9.86;71.05
48614;BME280;34408;51.426;5.444;2023-02-23T06:50:16;101327.28;;;9.85;71.07
48614;BME280;34408;51.426;5.444;2023-02-23T06:52:44;101326.47;;;9.84;71.14
48614;BME280;34408;51.426;5.444;2023-02-23T06:55:12;101330.81;;;9.85;71.30
48614;BME280;34408;51.426;5.444;2023-02-23T06:57:41;101335.34;;;9.85;71.07
48614;BME280;34408;51.426;5.444;2023-02-23T07:00:11;101333.69;;;9.84;71.28
48614;BME280;34408;51.426;5.444;2023-02-23T07:02:40;101334.72;;;9.83;71.45
48614;BME280;34408;51.426;5.444;2023-02-23T07:05:09;101337.41;;;9.83;71.19
48614;BME280;34408;51.426;5.444;2023-02-23T07:07:39;101334.94;;;9.81;71.35
48614;BME280;34408;51.426;5.444;2023-02-23T07:10:08;101340.28;;;9.81;71.26
48614;BME280;34408;51.426;5.444;2023-02-23T07:12:36;101347.53;;;9.81;71.10
48614;BME280;34408;51.426;5.444;2023-02-23T07:15:04;101348.34;;;9.81;71.11
48614;BME280;34408;51.426;5.444;2023-02-23T07:17:32;101352.88;;;9.81;71.42
48614;BME280;34408;51.426;5.444;2023-02-23T07:20:00;101358.25;;;9.81;70.94
48614;BME280;34408;51.426;5.444;2023-02-23T07:22:27;101353.91;;;9.79;71.29
48614;BME280;34408;51.426;5.444;2023-02-23T07:24:57;101363.63;;;9.81;71.15
48614;BME280;34408;51.426;5.444;2023-02-23T07:27:25;101358.25;;;9.81;71.19
48614;BME280;34408;51.426;5.444;2023-02-23T07:29:53;101365.50;;;9.80;71.20
48614;BME280;34408;51.426;5.444;2023-02-23T07:32:20;101370.84;;;9.80;71.22
48614;BME280;34408;51.426;5.444;2023-02-23T07:34:49;101367.94;;;9.75;71.41
48614;BME280;34408;51.426;5.444;2023-02-23T07:37:19;101379.94;;;9.79;71.58
48614;BME280;34408;51.426;5.444;2023-02-23T07:39:47;101380.13;;;9.77;71.13
48614;BME280;34408;51.426;5.444;2023-02-23T07:42:16;101391.69;;;9.78;71.52
48614;BME280;34408;51.426;5.444;2023-02-23T07:44:44;101397.06;;;9.78;71.73
48614;BME280;34408;51.426;5.444;2023-02-23T07:47:12;101398.94;;;9.77;71.79
48614;BME280;34408;51.426;5.444;2023-02-23T07:49:39;101400.59;;;9.78;71.53
48614;BME280;34408;51.426;5.444;2023-02-23T07:52:08;101405.13;;;9.78;71.48
48614;BME280;34408;51.426;5.444;2023-02-23T07:54:35;101413.19;;;9.78;71.75
48614;BME280;34408;51.426;5.444;2023-02-23T07:57:03;101418.75;;;9.76;71.74
48614;BME280;34408;51.426;5.444;2023-02-23T07:59:33;101420.59;;;9.76;71.74
48614;BME280;34408;51.426;5.444;2023-02-23T08:02:00;101423.50;;;9.74;71.55
48614;BME280;34408;51.426;5.444;2023-02-23T08:04:28;101431.34;;;9.76;71.56
48614;BME280;34408;51.426;5.444;2023-02-23T08:06:56;101429.69;;;9.75;71.45
48614;BME280;34408;51.426;5.444;2023-02-23T08:09:24;101432.38;;;9.75;71.48
48614;BME280;34408;51.426;5.444;2023-02-23T08:11:52;101440.63;;;9.73;71.81
48614;BME280;34408;51.426;5.444;2023-02-23T08:14:20;101431.75;;;9.73;71.50
48614;BME280;34408;51.426;5.444;2023-02-23T08:16:50;101434.44;;;9.73;71.48
48614;BME280;34408;51.426;5.444;2023-02-23T08:19:18;101438.97;;;9.72;71.95
48614;BME280;34408;51.426;5.444;2023-02-23T08:21:48;101442.69;;;9.71;72.04
48614;BME280;34408;51.426;5.444;2023-02-23T08:24:16;101448.06;;;9.71;71.80
48614;BME280;34408;51.426;5.444;2023-02-23T08:26:44;101452.59;;;9.71;71.73
48614;BME280;34408;51.426;5.444;2023-02-23T08:29:12;101443.72;;;9.70;72.04
48614;BME280;34408;51.426;5.444;2023-02-23T08:31:39;101449.09;;;9.70;71.58
48614;BME280;34408;51.426;5.444;2023-02-23T08:34:09;101446.41;;;9.70;71.98
48614;BME280;34408;51.426;5.444;2023-02-23T08:36:37;101449.91;;;9.71;72.03
48614;BME280;34408;51.426;5.444;2023-02-23T08:39:05;101450.94;;;9.70;71.99
48614;BME280;34408;51.426;5.444;2023-02-23T08:41:38;101449.09;;;9.70;72.01
48614;BME280;34408;51.426;5.444;2023-02-23T08:44:06;101450.94;;;9.70;71.86
48614;BME280;34408;51.426;5.444;2023-02-23T08:46:34;101454.25;;;9.72;72.00
48614;BME280;34408;51.426;5.444;2023-02-23T08:49:02;101460.44;;;9.72;72.24
48614;BME280;34408;51.426;5.444;2023-02-23T08:51:32;101457.75;;;9.72;71.82
48614;BME280;34408;51.426;5.444;2023-02-23T08:54:01;101461.47;;;9.71;72.17
48614;BME280;34408;51.426;5.444;2023-02-23T08:56:28;101466.84;;;9.71;72.05
48614;BME280;34408;51.426;5.444;2023-02-23T08:58:57;101475.09;;;9.70;72.32
48614;BME280;34408;51.426;5.444;2023-02-23T09:01:24;101473.44;;;9.69;72.09
48614;BME280;34408;51.426;5.444;2023-02-23T09:03:52;101479.84;;;9.74;72.37
48614;BME280;34408;51.426;5.444;2023-02-23T09:06:22;101474.53;;;9.88;72.07
48614;BME280;34408;51.426;5.444;2023-02-23T09:08:54;101475.00;;;10.04;71.32
48614;BME280;34408;51.426;5.444;2023-02-23T09:11:22;101476.50;;;10.20;70.70
48614;BME280;34408;51.426;5.444;2023-02-23T09:13:52;101476.13;;;10.36;70.17
48614;BME280;34408;51.426;5.444;2023-02-23T09:16:20;101480.25;;;10.52;69.53
48614;BME280;34408;51.426;5.444;2023-02-23T09:18:48;101483.34;;;10.69;68.90
48614;BME280;34408;51.426;5.444;2023-02-23T09:21:17;101485.00;;;10.83;68.40
48614;BME280;34408;51.426;5.444;2023-02-23T09:23:48;101486.03;;;10.95;68.05
48614;BME280;34408;51.426;5.444;2023-02-23T09:26:19;101487.47;;;11.04;67.65
48614;BME280;34408;51.426;5.444;2023-02-23T09:28:47;101495.94;;;11.08;67.21
48614;BME280;34408;51.426;5.444;2023-02-23T09:31:17;101486.44;;;11.05;67.39
48614;BME280;34408;51.426;5.444;2023-02-23T09:33:46;101493.47;;;10.93;67.92
48614;BME280;34408;51.426;5.444;2023-02-23T09:36:16;101498.03;;;10.80;68.32
48614;BME280;34408;51.426;5.444;2023-02-23T09:38:45;101509.19;;;10.70;68.47
48614;BME280;34408;51.426;5.444;2023-02-23T09:44:25;101500.91;;;10.45;69.37
48614;BME280;34408;51.426;5.444;2023-02-23T09:47:08;101502.16;;;10.36;70.00
48614;BME280;34408;51.426;5.444;2023-02-23T09:49:42;101502.16;;;10.29;70.16
48614;BME280;34408;51.426;5.444;2023-02-23T09:52:16;101504.63;;;10.24;70.34
48614;BME280;34408;51.426;5.444;2023-02-23T09:54:45;101505.41;;;10.18;70.76
48614;BME280;34408;51.426;5.444;2023-02-23T09:57:16;101509.31;;;10.16;71.11
48614;BME280;34408;51.426;5.444;2023-02-23T09:59:46;101512.22;;;10.14;70.95
48614;BME280;34408;51.426;5.444;2023-02-23T10:02:22;101512.63;;;10.11;71.21
48614;BME280;34408;51.426;5.444;2023-02-23T10:04:53;101522.94;;;10.07;71.19
48614;BME280;34408;51.426;5.444;2023-02-23T10:07:39;101524.81;;;10.14;71.20
48614;BME280;34408;51.426;5.444;2023-02-23T10:10:18;101522.00;;;10.28;70.52
48614;BME280;34408;51.426;5.444;2023-02-23T10:12:53;101518.06;;;10.44;70.10
48614;BME280;34408;51.426;5.444;2023-02-23T10:15:34;101514.78;;;10.62;69.43
48614;BME280;34408;51.426;5.444;2023-02-23T10:18:11;101515.81;;;10.81;68.66
48614;BME280;34408;51.426;5.444;2023-02-23T10:20:48;101516.63;;;10.94;68.10
48614;BME280;34408;51.426;5.444;2023-02-23T10:23:21;101515.41;;;11.03;67.75
48614;BME280;34408;51.426;5.444;2023-02-23T10:25:50;101520.34;;;11.13;67.45
48614;BME280;34408;51.426;5.444;2023-02-23T10:28:21;101531.31;;;11.25;66.69
48614;BME280;34408;51.426;5.444;2023-02-23T10:30:51;101513.91;;;11.34;66.18
48614;BME280;34408;51.426;5.444;2023-02-23T10:33:23;101514.91;;;11.39;65.94
48614;BME280;34408;51.426;5.444;2023-02-23T10:35:56;101514.47;;;11.49;65.50
48614;BME280;34408;51.426;5.444;2023-02-23T10:38:39;101511.56;;;11.51;65.16
48614;BME280;34408;51.426;5.444;2023-02-23T10:41:08;101520.69;;;11.50;64.96
48614;BME280;34408;51.426;5.444;2023-02-23T10:43:40;101514.91;;;11.46;65.15
48614;BME280;34408;51.426;5.444;2023-02-23T10:46:17;101525.50;;;11.34;65.29
48614;BME280;34408;51.426;5.444;2023-02-23T10:48:48;101525.72;;;11.20;65.78
48614;BME280;34408;51.426;5.444;2023-02-23T10:51:25;101525.31;;;11.03;66.06
48614;BME280;34408;51.426;5.444;2023-02-23T10:53:55;101533.41;;;10.90;66.96
48614;BME280;34408;51.426;5.444;2023-02-23T10:56:30;101526.16;;;10.77;67.50
48614;BME280;34408;51.426;5.444;2023-02-23T10:59:00;101526.56;;;10.67;67.41
48614;BME280;34408;51.426;5.444;2023-02-23T11:01:34;101523.25;;;10.59;67.51
48614;BME280;34408;51.426;5.444;2023-02-23T11:04:16;101525.72;;;10.54;68.04
48614;BME280;34408;51.426;5.444;2023-02-23T11:06:45;101520.97;;;10.49;67.95
48614;BME280;34408;51.426;5.444;2023-02-23T11:09:23;101525.28;;;10.43;68.30
48614;BME280;34408;51.426;5.444;2023-02-23T11:12:15;101532.13;;;10.39;68.70
48614;BME280;34408;51.426;5.444;2023-02-23T11:14:48;101532.34;;;10.38;69.04
48614;BME280;34408;51.426;5.444;2023-02-23T11:17:36;101534.41;;;10.36;68.78
48614;BME280;34408;51.426;5.444;2023-02-23T11:20:17;101535.44;;;10.35;68.97
48614;BME280;34408;51.426;5.444;2023-02-23T11:22:49;101531.31;;;10.32;69.24
48614;BME280;34408;51.426;5.444;2023-02-23T11:25:23;101535.84;;;10.32;69.26
48614;BME280;34408;51.426;5.444;2023-02-23T11:27:52;101538.53;;;10.32;69.42
48614;BME280;34408;51.426;5.444;2023-02-23T11:30:24;101535.22;;;10.30;69.38
48614;BME280;34408;51.426;5.444;2023-02-23T11:32:58;101542.66;;;10.28;69.20
48614;BME280;34408;51.426;5.444;2023-02-23T11:35:35;101529.63;;;10.25;69.22
48614;BME280;34408;51.426;5.444;2023-02-23T11:38:14;101534.56;;;10.21;69.35
48614;BME280;34408;51.426;5.444;2023-02-23T11:40:57;101528.38;;;10.21;69.61
48614;BME280;34408;51.426;5.444;2023-02-23T11:43:25;101526.91;;;10.18;69.37
48614;BME280;34408;51.426;5.444;2023-02-23T11:45:55;101515.09;;;10.13;69.22
48614;BME280;34408;51.426;5.444;2023-02-23T11:48:31;101517.38;;;10.09;69.73
48614;BME280;34408;51.426;5.444;2023-02-23T11:51:00;101524.19;;;10.11;69.96
48614;BME280;34408;51.426;5.444;2023-02-23T11:53:31;101520.31;;;10.21;69.83
48614;BME280;34408;51.426;5.444;2023-02-23T11:56:03;101530.28;;;10.40;69.20
48614;BME280;34408;51.426;5.444;2023-02-23T11:58:42;101527.19;;;10.56;68.26
48614;BME280;34408;51.426;5.444;2023-02-23T12:01:13;101526.97;;;10.71;67.61
48614;BME280;34408;51.426;5.444;2023-02-23T12:03:46;101526.38;;;10.82;66.84
48614;BME280;34408;51.426;5.444;2023-02-23T12:06:25;101522.03;;;11.01;66.37
48614;BME280;34408;51.426;5.444;2023-02-23T12:08:59;101519.50;;;11.19;65.68
48614;BME280;34408;51.426;5.444;2023-02-23T12:11:36;101523.00;;;11.33;64.95
48614;BME280;34408;51.426;5.444;2023-02-23T12:14:11;101514.09;;;11.39;64.90
48614;BME280;34408;51.426;5.444;2023-02-23T12:16:46;101502.28;;;11.40;64.75
48614;BME280;34408;51.426;5.444;2023-02-23T12:19:23;101499.81;;;11.32;64.67
48614;BME280;34408;51.426;5.444;2023-02-23T12:21:59;101491.38;;;11.22;65.22
48614;BME280;34408;51.426;5.444;2023-02-23T12:24:40;101493.88;;;11.10;65.63
48614;BME280;34408;51.426;5.444;2023-02-23T12:27:13;101499.66;;;11.00;66.22
48614;BME280;34408;51.426;5.444;2023-02-23T12:29:58;101493.88;;;10.90;66.31
48614;BME280;34408;51.426;5.444;2023-02-23T12:32:37;101500.31;;;10.83;66.45
48614;BME280;34408;51.426;5.444;2023-02-23T12:35:12;101497.63;;;10.76;66.47
48614;BME280;34408;51.426;5.444;2023-02-23T12:37:46;101505.47;;;10.71;66.54
48614;BME280;34408;51.426;5.444;2023-02-23T12:40:18;101498.66;;;10.62;66.38
48614;BME280;34408;51.426;5.444;2023-02-23T12:42:53;101504.63;;;10.57;66.22
48614;BME280;34408;51.426;5.444;2023-02-23T12:45:28;101498.44;;;10.50;66.21
48614;BME280;34408;51.426;5.444;2023-02-23T12:48:11;101495.13;;;10.41;66.17
48614;BME280;34408;51.426;5.444;2023-02-23T12:50:48;101502.78;;;10.38;66.41
48614;BME280;34408;51.426;5.444;2023-02-23T12:53:21;101499.88;;;10.33;66.14
48614;BME280;34408;51.426;5.444;2023-02-23T12:56:10;101484.59;;;10.33;66.25
48614;BME280;34408;51.426;5.444;2023-02-23T12:58:49;101493.88;;;10.31;66.38
48614;BME280;34408;51.426;5.444;2023-02-23T13:01:22;101493.69;;;10.32;66.54
48614;BME280;34408;51.426;5.444;2023-02-23T13:04:06;101494.72;;;10.31;66.82
48614;BME280;34408;51.426;5.444;2023-02-23T13:06:49;101499.06;;;10.32;66.97
48614;BME280;34408;51.426;5.444;2023-02-23T13:09:29;101492.66;;;10.33;67.19
48614;BME280;34408;51.426;5.444;2023-02-23T13:12:13;101502.78;;;10.38;67.23
48614;BME280;34408;51.426;5.444;2023-02-23T13:14:50;101493.69;;;10.52;66.97
48614;BME280;34408;51.426;5.444;2023-02-23T13:17:30;101503.00;;;10.69;66.07
48614;BME280;34408;51.426;5.444;2023-02-23T13:20:02;101500.50;;;10.81;64.74
48614;BME280;34408;51.426;5.444;2023-02-23T13:22:42;101499.69;;;10.87;64.21
48614;BME280;34408;51.426;5.444;2023-02-23T13:25:28;101510.00;;;11.03;64.01
48614;BME280;34408;51.426;5.444;2023-02-23T13:28:00;101499.84;;;11.19;63.44